createdAt,value
2022-09-07T00:00:15.364Z,5.10
2022-09-07T00:02:42.270Z,4.77
2022-09-07T00:05:09.072Z,4.90
2022-09-07T00:07:35.835Z,4.70
2022-09-07T00:10:02.544Z,5.20
2022-09-07T00:12:29.304Z,4.53
2022-09-07T00:14:56.007Z,5.03
2022-09-07T00:17:22.842Z,4.90
2022-09-07T00:19:49.849Z,5.00
2022-09-07T00:22:16.670Z,5.47
2022-09-07T00:24:43.373Z,4.93
2022-09-07T00:27:11.285Z,4.13
2022-09-07T00:29:38.193Z,4.60
2022-09-07T00:32:05.342Z,4.33
2022-09-07T00:34:32.055Z,4.33
2022-09-07T00:36:59.361Z,4.10
2022-09-07T00:39:26.271Z,4.90
2022-09-07T00:41:53.225Z,4.67
2022-09-07T00:44:38.616Z,4.07
2022-09-07T00:47:12.936Z,4.50
2022-09-07T00:49:39.694Z,4.30
2022-09-07T00:52:06.410Z,4.43
2022-09-07T00:54:34.991Z,3.97
2022-09-07T00:57:01.844Z,4.07
2022-09-07T00:59:36.071Z,3.90
2022-09-07T01:02:03.031Z,3.83
2022-09-07T01:04:30.200Z,3.30
2022-09-07T01:06:56.951Z,3.57
2022-09-07T01:09:25.036Z,4.00
2022-09-07T01:11:52.307Z,3.27
2022-09-07T01:14:20.240Z,3.53
2022-09-07T01:17:22.642Z,3.77
2022-09-07T01:19:52.211Z,3.67
2022-09-07T01:22:28.589Z,3.23
2022-09-07T01:24:58.372Z,3.13
2022-09-07T01:27:31.294Z,3.60
2022-09-07T01:30:11.158Z,3.70
2022-09-07T01:32:40.985Z,3.50
2022-09-07T01:35:10.093Z,3.60
2022-09-07T01:37:43.578Z,3.50
2022-09-07T01:40:21.064Z,3.20
2022-09-07T01:42:54.707Z,3.30
2022-09-07T01:45:22.603Z,3.23
2022-09-07T01:47:50.846Z,3.80
2022-09-07T01:50:19.298Z,3.50
2022-09-07T01:53:01.181Z,3.20
2022-09-07T01:55:27.987Z,2.97
2022-09-07T01:58:02.442Z,3.17
2022-09-07T02:00:29.252Z,3.07
2022-09-07T02:02:57.927Z,3.80
2022-09-07T02:05:26.938Z,3.43
2022-09-07T02:08:05.073Z,3.03
2022-09-07T02:10:36.741Z,2.80
2022-09-07T02:13:06.923Z,3.20
2022-09-07T02:15:57.008Z,3.33
2022-09-07T02:18:23.887Z,3.50
2022-09-07T02:20:51.655Z,2.97
2022-09-07T02:23:19.389Z,3.40
2022-09-07T02:25:47.315Z,3.47
2022-09-07T02:28:15.143Z,3.03
2022-09-07T02:30:41.930Z,3.40
2022-09-07T02:33:08.784Z,3.30
2022-09-07T02:35:35.490Z,3.57
2022-09-07T02:38:03.310Z,4.07
2022-09-07T02:40:30.119Z,3.77
2022-09-07T02:42:58.232Z,3.30
2022-09-07T02:45:25.011Z,3.70
2022-09-07T02:47:58.636Z,3.73
2022-09-07T02:50:37.994Z,3.10
2022-09-07T02:53:13.857Z,3.20
2022-09-07T02:55:51.969Z,3.47
2022-09-07T02:58:18.725Z,3.97
2022-09-07T03:00:50.117Z,3.37
2022-09-07T03:03:35.692Z,3.53
2022-09-07T03:06:03.727Z,3.30
2022-09-07T03:08:38.135Z,3.47
2022-09-07T03:11:05.036Z,3.27
2022-09-07T03:13:31.768Z,3.17
2022-09-07T03:15:58.716Z,3.73
2022-09-07T03:18:25.772Z,3.73
2022-09-07T03:20:52.746Z,3.23
2022-09-07T03:23:19.498Z,3.20
2022-09-07T03:25:47.551Z,3.33
2022-09-07T03:28:14.281Z,3.73
2022-09-07T03:30:44.328Z,3.60
2022-09-07T03:33:11.172Z,3.30
2022-09-07T03:35:37.974Z,3.20
2022-09-07T03:38:04.752Z,3.40
2022-09-07T03:40:31.555Z,3.80
2022-09-07T03:42:58.266Z,3.37
2022-09-07T03:45:25.069Z,3.80
2022-09-07T03:47:51.768Z,3.50
2022-09-07T03:50:18.542Z,4.00
2022-09-07T03:52:45.380Z,3.70
2022-09-07T03:55:12.229Z,3.30
2022-09-07T03:57:40.421Z,3.80
2022-09-07T04:00:07.555Z,3.40
2022-09-07T04:02:39.223Z,3.80
2022-09-07T04:05:06.304Z,3.83
2022-09-07T04:07:33.216Z,3.93
2022-09-07T04:10:00.178Z,3.37
2022-09-07T04:12:26.881Z,3.90
2022-09-07T04:14:53.647Z,3.97
2022-09-07T04:17:21.037Z,3.97
2022-09-07T04:19:48.180Z,3.70
2022-09-07T04:22:15.165Z,3.80
2022-09-07T04:24:41.963Z,3.83
2022-09-07T04:27:08.702Z,3.70
2022-09-07T04:29:35.560Z,5.13
2022-09-07T04:32:02.578Z,4.53
2022-09-07T04:34:29.360Z,5.47
2022-09-07T04:36:56.123Z,4.90
2022-09-07T04:39:23.034Z,5.37
2022-09-07T04:41:49.751Z,5.37
2022-09-07T04:44:17.193Z,7.23
2022-09-07T04:46:44.019Z,4.43
2022-09-07T04:49:10.849Z,4.57
2022-09-07T04:51:38.037Z,4.20
2022-09-07T04:54:04.972Z,5.83
2022-09-07T04:56:32.008Z,4.90
2022-09-07T04:58:59.255Z,5.03
2022-09-07T05:01:26.315Z,4.83
2022-09-07T05:03:53.211Z,4.90
2022-09-07T05:06:20.376Z,4.67
2022-09-07T05:08:47.956Z,5.33
2022-09-07T05:11:14.954Z,5.33
2022-09-07T05:13:41.835Z,4.77
2022-09-07T05:16:09.362Z,5.30
2022-09-07T05:18:36.355Z,5.47
2022-09-07T05:21:13.098Z,4.60
2022-09-07T05:23:40.009Z,5.60
2022-09-07T05:26:06.814Z,5.50
2022-09-07T05:28:34.328Z,4.53
2022-09-07T05:31:23.239Z,4.67
2022-09-07T05:36:40.421Z,5.50
2022-09-07T05:39:07.450Z,4.20
2022-09-07T05:41:34.343Z,5.23
2022-09-07T05:46:47.985Z,4.57
2022-09-07T05:49:14.843Z,4.80
2022-09-07T05:51:41.655Z,4.73
2022-09-07T05:54:08.465Z,4.17
2022-09-07T05:56:36.176Z,4.47
2022-09-07T05:59:03.106Z,4.43
2022-09-07T06:01:30.042Z,4.80
2022-09-07T06:03:56.914Z,5.60
2022-09-07T06:06:23.954Z,5.10
2022-09-07T06:11:37.140Z,4.80
2022-09-07T06:16:48.720Z,5.00
2022-09-07T06:19:15.616Z,4.50
2022-09-07T06:21:42.412Z,4.87
2022-09-07T06:24:09.527Z,4.67
2022-09-07T06:26:36.388Z,4.80
2022-09-07T06:29:03.842Z,4.10
2022-09-07T06:31:33.281Z,4.37
2022-09-07T06:34:00.480Z,4.27
2022-09-07T06:36:28.497Z,3.53
2022-09-07T06:38:55.957Z,4.50
2022-09-07T06:44:12.612Z,4.30
2022-09-07T06:49:26.862Z,4.70
2022-09-07T06:51:53.921Z,4.63
2022-09-07T06:57:10.949Z,4.00
2022-09-07T06:59:37.806Z,4.07
2022-09-07T07:02:05.450Z,4.27
2022-09-07T07:04:35.115Z,4.10
2022-09-07T07:07:04.906Z,4.20
2022-09-07T07:09:32.257Z,3.83
2022-09-07T07:11:59.134Z,3.27
2022-09-07T07:14:25.863Z,3.40
2022-09-07T07:16:52.835Z,3.83
2022-09-07T07:19:19.617Z,3.27
2022-09-07T07:22:10.723Z,2.90
2022-09-07T07:24:34.039Z,3.70
2022-09-07T07:27:01.072Z,3.90
2022-09-07T07:29:28.400Z,3.47
2022-09-07T07:31:55.443Z,3.30
2022-09-07T07:34:22.787Z,2.43
2022-09-07T07:36:49.775Z,2.80
2022-09-07T07:42:05.977Z,2.40
2022-09-07T07:44:33.225Z,2.67
2022-09-07T07:47:00.338Z,2.50
2022-09-07T07:49:27.277Z,2.43
2022-09-07T07:54:42.135Z,2.70
2022-09-07T07:57:08.899Z,1.80
2022-09-07T07:59:35.734Z,2.10
2022-09-07T08:02:05.375Z,1.83
2022-09-07T08:04:33.070Z,1.90
2022-09-07T08:07:06.972Z,1.70
2022-09-07T08:09:37.439Z,1.50
2022-09-07T08:12:04.220Z,1.77
2022-09-07T08:14:30.945Z,2.00
2022-09-07T08:16:57.670Z,2.27
2022-09-07T08:19:24.549Z,2.17
2022-09-07T08:21:51.487Z,2.10
2022-09-07T08:24:18.304Z,2.10
2022-09-07T08:26:45.068Z,1.90
2022-09-07T08:29:11.875Z,1.80
2022-09-07T08:31:38.807Z,1.80
2022-09-07T08:34:08.202Z,1.93
2022-09-07T08:36:35.156Z,2.17
2022-09-07T08:39:01.993Z,1.90
2022-09-07T08:41:35.191Z,1.50
2022-09-07T08:44:02.403Z,1.83
2022-09-07T08:46:32.257Z,1.60
2022-09-07T08:48:59.852Z,1.20
2022-09-07T08:51:43.420Z,1.37
2022-09-07T08:54:13.942Z,1.23
2022-09-07T08:57:20.616Z,1.50
2022-09-07T08:59:35.963Z,1.27
2022-09-07T09:07:36.138Z,1.40
2022-09-07T09:10:21.381Z,1.10
2022-09-07T09:13:06.743Z,1.17
2022-09-07T09:15:42.297Z,1.00
2022-09-07T09:18:14.481Z,1.20
2022-09-07T09:20:41.461Z,1.23
2022-09-07T09:23:12.533Z,1.20
2022-09-07T09:25:40.115Z,1.00
2022-09-07T09:28:09.375Z,1.10
2022-09-07T09:30:36.283Z,1.10
2022-09-07T09:33:29.408Z,0.73
2022-09-07T09:35:57.057Z,1.00
2022-09-07T09:38:29.544Z,0.97
2022-09-07T09:40:56.722Z,1.30
2022-09-07T09:43:28.090Z,1.23
2022-09-07T09:48:42.802Z,1.33
2022-09-07T09:53:57.401Z,0.80
2022-09-07T09:56:35.729Z,0.93
2022-09-07T10:05:20.872Z,0.93
2022-09-07T10:07:51.111Z,1.00
2022-09-07T10:10:17.876Z,0.83
2022-09-07T10:12:44.564Z,0.90
2022-09-07T10:15:24.986Z,1.10
2022-09-07T10:17:53.106Z,1.00
2022-09-07T10:20:20.066Z,0.93
2022-09-07T10:22:51.355Z,0.87
2022-09-07T10:25:30.770Z,0.80
2022-09-07T10:28:05.000Z,1.03
2022-09-07T10:30:39.600Z,1.00
2022-09-07T10:33:18.236Z,1.27
2022-09-07T10:35:56.786Z,1.00
2022-09-07T10:38:25.087Z,1.07
2022-09-07T10:41:00.559Z,1.10
2022-09-07T10:43:30.372Z,1.00
2022-09-07T10:46:12.438Z,1.10
2022-09-07T10:48:57.453Z,1.00
2022-09-07T10:51:33.185Z,1.27
2022-09-07T10:56:49.382Z,1.30
2022-09-07T11:00:07.402Z,1.23
2022-09-07T11:02:30.620Z,6.00
2022-09-07T11:05:00.541Z,1.10
2022-09-07T11:07:30.288Z,1.30
2022-09-07T11:10:00.064Z,1.20
2022-09-07T11:12:29.272Z,1.10
2022-09-07T11:15:01.753Z,1.27
2022-09-07T11:17:28.502Z,1.10
2022-09-07T11:20:14.128Z,1.30
2022-09-07T11:22:45.292Z,1.27
2022-09-07T11:25:33.788Z,2.67
2022-09-07T11:28:07.733Z,2.00
2022-09-07T11:30:35.801Z,1.90
2022-09-07T11:33:11.336Z,2.10
2022-09-07T11:35:41.366Z,1.87
2022-09-07T11:38:17.708Z,2.10
2022-09-07T11:40:49.887Z,1.70
2022-09-07T11:43:16.613Z,1.00
2022-09-07T11:45:49.631Z,1.10
2022-09-07T11:48:22.511Z,1.70
2022-09-07T11:50:51.530Z,2.17
2022-09-07T11:53:25.832Z,1.90
2022-09-07T11:56:01.435Z,1.70
2022-09-07T11:58:28.730Z,1.83
2022-09-07T12:00:55.579Z,2.00
2022-09-07T12:03:45.642Z,1.70
2022-09-07T12:06:15.486Z,2.00
2022-09-07T12:08:54.704Z,1.70
2022-09-07T12:11:40.022Z,1.80
2022-09-07T12:14:17.017Z,1.97
2022-09-07T12:16:56.543Z,1.43
2022-09-07T12:19:24.947Z,1.57
2022-09-07T12:21:51.705Z,1.57
2022-09-07T12:24:36.941Z,2.37
2022-09-07T12:27:04.875Z,1.57
2022-09-07T12:29:31.963Z,1.53
2022-09-07T12:32:08.050Z,1.33
2022-09-07T12:34:49.750Z,1.60
2022-09-07T12:37:16.642Z,1.80
2022-09-07T12:39:45.390Z,1.70
2022-09-07T12:45:22.894Z,1.53
2022-09-07T12:47:56.330Z,1.50
2022-09-07T12:50:28.446Z,0.93
2022-09-07T12:53:15.569Z,1.43
2022-09-07T12:58:47.724Z,1.10
2022-09-07T13:01:24.113Z,1.03
2022-09-07T13:03:51.728Z,1.10
2022-09-07T13:09:35.747Z,1.20
2022-09-07T13:12:04.919Z,1.20
2022-09-07T13:14:33.927Z,0.90
2022-09-07T13:17:20.135Z,0.90
2022-09-07T13:19:46.952Z,0.93
2022-09-07T13:22:32.362Z,0.90
2022-09-07T13:24:59.931Z,0.90
2022-09-07T13:27:41.879Z,0.90
2022-09-07T13:30:15.225Z,0.90
2022-09-07T13:35:32.668Z,0.97
2022-09-07T13:38:02.545Z,1.10
2022-09-07T13:40:33.752Z,1.00
2022-09-07T13:43:00.539Z,0.90
2022-09-07T13:45:36.619Z,1.10
2022-09-07T13:48:21.794Z,0.70
2022-09-07T13:50:48.790Z,0.87
2022-09-07T13:53:21.670Z,0.90
2022-09-07T13:55:52.819Z,0.77
2022-09-07T13:58:25.915Z,1.00
2022-09-07T14:00:56.927Z,1.03
2022-09-07T14:03:24.710Z,0.90
2022-09-07T14:06:11.396Z,0.90
2022-09-07T14:08:39.883Z,1.00
2022-09-07T14:14:24.113Z,0.80
2022-09-07T14:16:54.927Z,0.80
2022-09-07T14:19:24.493Z,0.70
2022-09-07T14:22:05.275Z,0.80
2022-09-07T14:24:42.073Z,0.70
2022-09-07T14:27:22.654Z,0.60
2022-09-07T14:29:49.734Z,0.97
2022-09-07T14:32:17.429Z,0.80
2022-09-07T14:34:44.921Z,0.70
2022-09-07T14:37:15.900Z,0.73
2022-09-07T14:39:43.812Z,1.43
2022-09-07T14:42:18.014Z,1.00
2022-09-07T14:44:45.462Z,2.60
2022-09-07T14:47:23.625Z,2.27
2022-09-07T14:49:52.716Z,1.97
2022-09-07T14:52:43.605Z,0.60
2022-09-07T14:55:30.650Z,1.40
2022-09-07T14:58:09.449Z,4.00
2022-09-07T15:00:36.758Z,4.87
2022-09-07T15:03:24.961Z,2.00
2022-09-07T15:05:52.152Z,2.13
2022-09-07T15:08:42.231Z,1.00
2022-09-07T15:14:02.927Z,1.70
2022-09-07T15:16:30.967Z,0.80
2022-09-07T15:19:02.407Z,1.10
2022-09-07T15:21:32.159Z,1.00
2022-09-07T15:23:59.679Z,0.70
2022-09-07T15:29:32.667Z,0.80
2022-09-07T15:32:04.959Z,1.90
2022-09-07T15:34:34.854Z,0.90
2022-09-07T15:37:02.666Z,0.70
2022-09-07T15:39:31.256Z,0.60
2022-09-07T15:42:00.150Z,1.20
2022-09-07T15:44:45.251Z,2.53
2022-09-07T15:49:59.106Z,1.20
2022-09-07T15:52:25.938Z,0.80
2022-09-07T15:54:52.793Z,1.43
2022-09-07T16:00:13.508Z,1.60
2022-09-07T16:05:30.988Z,2.57
2022-09-07T16:10:45.843Z,2.80
2022-09-07T16:13:16.828Z,4.47
2022-09-07T16:15:45.950Z,1.33
2022-09-07T16:18:18.594Z,0.93
2022-09-07T16:20:45.504Z,1.20
2022-09-07T16:23:14.446Z,0.90
2022-09-07T16:25:43.420Z,0.83
2022-09-07T16:28:10.190Z,0.80
2022-09-07T16:30:39.165Z,0.80
2022-09-07T16:33:06.239Z,0.90
2022-09-07T16:35:34.231Z,0.80
2022-09-07T16:40:50.962Z,1.00
2022-09-07T16:43:17.752Z,1.00
2022-09-07T16:46:02.639Z,1.07
2022-09-07T16:48:30.269Z,0.70
2022-09-07T16:51:03.947Z,0.80
2022-09-07T16:53:34.574Z,0.83
2022-09-07T16:56:04.905Z,0.90
2022-09-07T16:58:36.205Z,1.00
2022-09-07T17:01:07.520Z,1.00
2022-09-07T17:03:34.594Z,1.30
2022-09-07T17:06:03.034Z,0.83
2022-09-07T17:08:30.162Z,1.00
2022-09-07T17:11:04.073Z,0.80
2022-09-07T17:13:31.576Z,1.00
2022-09-07T17:16:02.271Z,0.97
2022-09-07T17:21:16.551Z,0.80
2022-09-07T17:23:49.378Z,1.03
2022-09-07T17:26:21.851Z,1.40
2022-09-07T17:28:49.122Z,1.20
2022-09-07T17:34:07.337Z,1.13
2022-09-07T17:36:34.562Z,1.67
2022-09-07T17:39:18.498Z,1.20
2022-09-07T17:41:46.835Z,1.23
2022-09-07T17:44:13.693Z,1.20
2022-09-07T17:46:40.620Z,1.07
2022-09-07T17:49:09.718Z,1.20
2022-09-07T17:51:36.597Z,2.33
2022-09-07T17:54:09.209Z,2.10
2022-09-07T17:56:36.779Z,1.77
2022-09-07T18:01:50.730Z,1.80
2022-09-07T18:04:17.857Z,1.73
2022-09-07T18:06:44.736Z,2.07
2022-09-07T18:09:14.112Z,2.10
2022-09-07T18:11:46.621Z,2.00
2022-09-07T18:14:15.208Z,1.90
2022-09-07T18:16:42.380Z,1.80
2022-09-07T18:19:10.886Z,2.00
2022-09-07T18:21:38.244Z,1.90
2022-09-07T18:24:07.679Z,1.73
2022-09-07T18:26:35.441Z,1.70
2022-09-07T18:29:04.058Z,1.70
2022-09-07T18:31:31.881Z,1.80
2022-09-07T18:33:58.899Z,2.10
2022-09-07T18:36:25.733Z,1.73
2022-09-07T18:38:52.745Z,1.60
2022-09-07T18:41:19.619Z,2.40
2022-09-07T18:43:49.055Z,3.00
2022-09-07T18:46:19.860Z,2.17
2022-09-07T18:48:46.737Z,1.90
2022-09-07T18:51:13.496Z,3.13
2022-09-07T18:53:40.540Z,2.57
2022-09-07T18:56:08.265Z,2.07
2022-09-07T18:58:35.136Z,1.83
2022-09-07T19:01:05.389Z,2.10
2022-09-07T19:03:32.878Z,2.27
2022-09-07T19:06:00.798Z,2.00
2022-09-07T19:08:34.374Z,2.30
2022-09-07T19:11:07.799Z,1.90
2022-09-07T19:13:35.704Z,2.13
2022-09-07T19:16:14.659Z,2.40
2022-09-07T19:18:48.172Z,2.57
2022-09-07T19:21:17.080Z,3.10
2022-09-07T19:23:43.772Z,3.87
2022-09-07T19:26:11.240Z,3.67
2022-09-07T19:28:39.792Z,3.30
2022-09-07T19:31:07.067Z,2.80
2022-09-07T19:33:37.464Z,2.27
2022-09-07T19:36:07.669Z,2.50
2022-09-07T19:38:34.474Z,2.93
2022-09-07T19:41:01.289Z,2.27
2022-09-07T19:43:32.674Z,2.30
2022-09-07T19:46:01.946Z,2.40
2022-09-07T19:48:30.613Z,3.10
2022-09-07T19:51:01.077Z,3.30
2022-09-07T19:53:31.094Z,2.97
2022-09-07T19:56:08.378Z,3.30
2022-09-07T19:58:36.233Z,3.20
2022-09-07T20:01:15.659Z,3.53
2022-09-07T20:03:42.789Z,3.83
2022-09-07T20:06:19.103Z,3.93
2022-09-07T20:08:46.036Z,4.93
2022-09-07T20:11:13.519Z,4.53
2022-09-07T20:13:40.450Z,5.70
2022-09-07T20:16:07.951Z,5.57
2022-09-07T20:18:35.111Z,4.07
2022-09-07T20:21:05.388Z,4.43
2022-09-07T20:23:34.529Z,4.23
2022-09-07T20:26:01.962Z,4.17
2022-09-07T20:28:30.179Z,4.57
2022-09-07T20:30:56.901Z,5.20
2022-09-07T20:33:23.874Z,5.57
2022-09-07T20:35:52.107Z,5.73
2022-09-07T20:38:20.719Z,5.20
2022-09-07T20:40:52.383Z,4.60
2022-09-07T20:43:19.214Z,4.37
2022-09-07T20:45:45.860Z,4.40
2022-09-07T20:48:12.788Z,4.20
2022-09-07T20:50:39.626Z,4.07
2022-09-07T20:53:06.459Z,4.00
2022-09-07T20:55:33.125Z,6.50
2022-09-07T20:58:00.997Z,8.47
2022-09-07T21:00:27.733Z,10.50
2022-09-07T21:02:54.697Z,9.90
2022-09-07T21:05:21.295Z,8.30
2022-09-07T21:07:48.566Z,8.83
2022-09-07T21:10:15.206Z,8.87
2022-09-07T21:12:41.921Z,8.43
2022-09-07T21:15:09.062Z,8.60
2022-09-07T21:17:36.299Z,8.03
2022-09-07T21:20:03.043Z,8.20
2022-09-07T21:22:30.523Z,7.97
2022-09-07T21:24:57.518Z,12.00
2022-09-07T21:27:24.274Z,10.70
2022-09-07T21:29:50.919Z,10.33
2022-09-07T21:32:17.605Z,9.40
2022-09-07T21:34:44.509Z,9.83
2022-09-07T21:37:11.375Z,8.63
2022-09-07T21:39:38.111Z,9.13
2022-09-07T21:42:05.469Z,8.33
2022-09-07T21:44:32.079Z,8.80
2022-09-07T21:46:58.824Z,8.97
2022-09-07T21:49:25.528Z,7.10
2022-09-07T21:51:55.157Z,8.40
2022-09-07T21:54:21.906Z,7.77
2022-09-07T21:56:49.322Z,6.70
2022-09-07T21:59:16.040Z,6.57
2022-09-07T22:01:42.753Z,6.80
2022-09-07T22:04:09.753Z,7.10
2022-09-07T22:06:37.685Z,6.53
2022-09-07T22:09:05.025Z,6.73
2022-09-07T22:11:31.864Z,6.43
2022-09-07T22:13:59.287Z,6.17
2022-09-07T22:16:25.965Z,5.80
2022-09-07T22:18:52.702Z,4.67
2022-09-07T22:21:24.075Z,5.10
2022-09-07T22:23:52.835Z,5.03
2022-09-07T22:26:20.750Z,4.13
2022-09-07T22:28:47.419Z,4.47
2022-09-07T22:31:17.920Z,3.93
2022-09-07T22:33:44.888Z,4.60
2022-09-07T22:36:15.403Z,4.40
2022-09-07T22:38:42.808Z,4.70
2022-09-07T22:41:09.852Z,4.30
2022-09-07T22:43:36.790Z,4.70
2022-09-07T22:46:03.645Z,4.43
2022-09-07T22:48:30.538Z,4.47
2022-09-07T22:50:58.205Z,4.00
2022-09-07T22:53:28.359Z,4.23
2022-09-07T22:55:55.275Z,4.73
2022-09-07T22:58:23.734Z,5.33
2022-09-07T23:00:50.897Z,5.30
2022-09-07T23:03:17.948Z,5.63
2022-09-07T23:05:44.630Z,5.47
2022-09-07T23:08:11.262Z,5.80
2022-09-07T23:10:38.882Z,5.87
2022-09-07T23:13:05.585Z,6.37
2022-09-07T23:18:16.859Z,6.00
2022-09-07T23:20:43.504Z,5.63
2022-09-07T23:23:10.194Z,5.70
2022-09-07T23:25:39.983Z,5.57
2022-09-07T23:28:07.414Z,6.00
2022-09-07T23:30:35.583Z,5.37
2022-09-07T23:33:02.769Z,5.57
2022-09-07T23:35:29.374Z,5.40
2022-09-07T23:37:56.126Z,5.00
2022-09-07T23:40:22.717Z,4.70
2022-09-07T23:42:49.398Z,5.47
2022-09-07T23:45:16.120Z,5.67
2022-09-07T23:47:42.756Z,5.77
2022-09-07T23:50:09.635Z,5.73
2022-09-07T23:52:37.334Z,4.83
2022-09-07T23:55:04.489Z,4.83
2022-09-07T23:57:31.384Z,5.77
2022-09-07T23:59:58.163Z,4.70
